今朝の成田(2017/03/22)

VNL100/JA08VA(A320)

NCA105/JA16KZ(B748)

JJP40/JA07JJ(A320)

AMX058/N966AM(B788)

CPA524/B-HNF(B773)

ANA814/JA623A(B763) with winglet

*JJP501/JA03JJ(A320)

ANA9416/JA831A(B788)

JAL724/JA861J(B789)

THA640/HS-TKC(B773)

CPA006/B-LID(B744)

ANA818/JA815A(B788)

ANA179/JA828A(B788)

JAL726/JA863J(B789)

JAL718/JA709J(B772)

ANA832/JA615A(B763)

FDX9818/N624FE(MD11)

FDX5392/N850FD(B77L)

JAL752/JA841J(B788)

CRK606/B-LPO(A320)

ANA830/JA814A(B788)

HVN310/VN-A869(B789)

MAS88/9M-MTK(A333)

CAL5706/B-18711(B744)

SIA638/9V-SWI(B77W)

FDX31/N882FD(B77L)

JAL740/JA865J(B789)

RJAA 212100Z 30011KT 9999 FEW030 BKN070 05/M02 Q1008 NOSIG RMK 1CU030 7AC070 A2977

RJAA 212200Z 31008KT 9999 FEW030 06/M01 Q1009 NOSIG RMK 1CU030 A2980

今朝の成田は雲がでているようです。